Paulistana II — 00 — position and weather

sailwx.info

Track history (hours):
 
Tides and Currents Weather Stations Pressure Air Temp Water Temp Dewpoint Dewpoint Depression Visibility Wind Speed Wind Dir Waves Ship Positions

Paulistana II

Last reported at 2015-Mar-30 06:33 UTC. Time now 2015-Mar-30 07:04 UTC.
Position N 31°23' E 121°36'.

Length 6 m.

Type: Pollution control. MMSI: 316014038.

Date/timePositionNaut miles runAvg speedWind from/ knotsBaromVisibWave heightAir tempDewpointWater temp
2015-Mar-30 06:33N 31°23' E 121°36'38024022.7
2015-Mar-30 06:32N 37°43' E 121°05'380370.5
2015-Mar-30 05:31N 31°23' E 121°36'521298.0
2015-Mar-30 05:28N 31°58' E 120°50'1448.2
2015-Mar-30 05:10N 32°02' E 120°34'6699.4
2015-Mar-30 04:31N 31°23' E 121°36'3805704.9
2015-Mar-30 04:27N 37°43' E 121°05'3451420.0
2015-Mar-30 04:12N 31°58' E 120°50'5275.8
2015-Mar-30 03:31N 31°23' E 121°36'52941.1
2015-Mar-30 03:27N 31°58' E 120°50'5255.3
2015-Mar-30 02:31N 31°23' E 121°36'52859.4
2015-Mar-30 02:27N 31°58' E 120°50'415.6
2015-Mar-30 02:10N 31°54' E 120°53'611676721.5
2015-Mar-30 02:05N 33°37' W 117°55'609810667.2
2015-Mar-30 01:31N 31°23' E 121°36'52821.8
2015-Mar-30 01:27N 31°58' E 120°50'3502435.1
2015-Mar-30 01:18N 37°47' E 121°10'384485.7
2015-Mar-30 00:31N 31°23' E 121°36'6098207103.9
2015-Mar-30 00:29N 33°37' W 117°55'590492409.1
2015-Mar-30 00:25N 37°43' E 121°05'3452064.0
2015-Mar-30 00:15N 31°58' E 120°50'0 0.1
2015-Mar-29 23:29N 31°58' E 120°50'52748.4
2015-Mar-29 23:25N 31°23' E 121°36'60986940.6
2015-Mar-29 22:32N 33°37' W 117°55'6098277886.3
2015-Mar-29 22:31N 31°23' E 121°36'411.1
2015-Mar-29 22:06N 31°20' E 121°33'2 4.2
2015-Mar-29 21:33N 31°21' E 121°30'6171.7
2015-Mar-29 21:31N 31°23' E 121°36'6098217358.5
2015-Mar-29 21:29N 33°37' W 117°55'60986277.7
2015-Mar-29 20:31N 31°23' E 121°36'52940.9
2015-Mar-29 20:31N 31°25' E 121°31'5 5.6
2015-Mar-29 19:33N 31°28' E 121°26'10224.7
2015-Mar-29 19:31N 31°23' E 121°36'1616.0
2015-Mar-29 18:33N 31°31' E 121°21'15489.0
2015-Mar-29 18:31N 31°23' E 121°36'0 0.1
2015-Mar-29 17:28N 31°23' E 121°36'21354.4
2015-Mar-29 17:24N 31°36' E 121°16'2122.9
2015-Mar-29 16:28N 31°23' E 121°36'0 0.1
2015-Mar-29 15:31N 31°23' E 121°36'52811.0
2015-Mar-29 15:27N 31°58' E 120°50'2072.0
2015-Mar-29 15:10N 31°44' E 121°06'3352.9
2015-Mar-29 14:33N 31°23' E 121°36'4 3.6
2015-Mar-29 13:33N 31°20' E 121°39'0 0.0
2015-Mar-29 12:27N 31°20' E 121°39'0 0.0
2015-Mar-29 11:33N 31°20' E 121°39'602462.8
2015-Mar-29 11:32N 32°00' E 120°47'6061.0
2015-Mar-29 10:33N 31°20' E 121°39'8446.6
2015-Mar-29 10:32N 31°23' E 121°30'8 8.0
2015-Mar-29 09:33N 31°20' E 121°39'55175.5
2015-Mar-29 09:14N 31°58' E 120°51'5575.2
2015-Mar-29 08:30N 31°20' E 121°39'0 0.0
2015-Mar-29 07:33N 31°20' E 121°39'764880.9
2015-Mar-29 07:32N 32°02' E 120°24'24452.5
2015-Mar-29 07:29N 31°58' E 120°51'5559.3
2015-Mar-29 06:33N 31°20' E 121°39'6098430436.7
2015-Mar-29 06:32N 33°37' W 117°55'6116153958.8
2015-Mar-29 06:30N 31°58' E 120°51'5558.5
2015-Mar-29 05:33N 31°20' E 121°39'55117.5
2015-Mar-29 05:05N 31°58' E 120°51'55104.8
2015-Mar-29 04:33N 31°20' E 121°39'6098422158.9
2015-Mar-29 04:32N 33°37' W 117°55'60986190.7
2015-Mar-29 03:33N 31°20' E 121°39'6098414193.4
2015-Mar-29 03:32N 33°37' W 117°55'60986204.9
2015-Mar-29 02:33N 31°21' E 121°38'609852021.3
2015-Mar-29 02:26N 33°37' W 117°55'61026912.3
2015-Mar-29 01:33N 31°25' E 121°31'4796.0
2015-Mar-29 01:04N 31°58' E 120°51'4181.0
2015-Mar-29 00:33N 31°29' E 121°25'610450752.9
2015-Mar-29 00:26N 33°37' W 117°55'61076939.6
2015-Mar-28 23:33N 31°33' E 121°19'610719100.4
2015-Mar-28 23:14N 33°37' W 117°55'6108338307.8
2015-Mar-28 23:13N 31°40' E 121°13'26486.4
2015-Mar-28 23:10N 31°58' E 120°51'2745.3
2015-Mar-28 22:34N 31°39' E 121°14'2660.3
2015-Mar-28 22:33N 31°37' E 121°16'30135.6
2015-Mar-28 22:20N 31°58' E 120°51'48283.5
2015-Mar-28 22:10N 31°21' E 121°26'1321.3
2015-Mar-28 21:33N 31°33' E 121°20'153930.5
2015-Mar-28 21:33N 31°43' E 121°07'282873.4
2015-Mar-28 21:32N 31°22' E 121°28'3533.8
2015-Mar-28 20:29N 31°47' E 120°58'294002.5
2015-Mar-28 20:29N 31°30' E 121°26'610389679.1
2015-Mar-28 20:25N 33°37' W 117°55'61027139.4
2015-Mar-28 19:33N 31°26' E 121°30'413487.5
2015-Mar-28 19:33N 31°53' E 120°53'9 8.6
2015-Mar-28 18:33N 32°00' E 120°48'5262056.1
2015-Mar-28 18:33N 31°23' E 121°30'5857.7
2015-Mar-28 17:33N 31°60' E 120°38'11140.2
2015-Mar-28 17:29N 31°58' E 120°51'551983.0
2015-Mar-28 17:27N 31°17' E 121°34'7280.9
2015-Mar-28 16:33N 32°04' E 120°29'8 7.9
2015-Mar-28 15:33N 31°60' E 120°22'8 8.1
2015-Mar-28 14:33N 31°56' E 120°13'9 8.8
2015-Mar-28 13:33N 31°58' E 120°03'9 9.0
2015-Mar-28 12:34N 32°04' E 119°56'9079.5
2015-Mar-28 11:26N 31°24' E 121°31'976117.1
2015-Mar-28 11:25N 32°14' E 119°53'5222.9
2015-Mar-28 09:08N 31°58' E 120°51'1 0.2
2015-Mar-28 05:23N 31°58' E 120°50'611761166.1
2015-Mar-28 05:17N 33°37' W 117°55'61178207.2
2015-Mar-28 04:33N 31°58' E 120°50'450415.6
2015-Mar-28 03:28N 39°04' E 117°52'4502196.4
2015-Mar-28 03:15N 31°58' E 120°50'0 0.1
2015-Mar-28 02:03N 31°58' E 120°50'61172439.6
2015-Mar-27 23:32N 33°37' W 117°55'611740182.2
2015-Mar-27 23:23N 31°58' E 120°50'61176815.2
2015-Mar-27 22:29N 33°37' W 117°55'611749042.0
2015-Mar-27 22:22N 31°58' E 120°50'61176273.5
2015-Mar-27 21:23N 33°37' W 117°55'611739250.9
2015-Mar-27 21:14N 31°58' E 120°50'0 0.0
2015-Mar-27 20:33N 31°58' E 120°50'0 0.0
2015-Mar-27 19:30N 31°58' E 120°50'0 0.0
2015-Mar-27 18:12N 31°58' E 120°50'8362.1
2015-Mar-27 18:11N 31°50' E 120°54'54003238.7
2015-Mar-27 16:31N 49°18' W 122°53'539618822.2
2015-Mar-27 16:14N 31°58' E 120°50'324.8
2015-Mar-27 16:06N 32°00' E 120°48'53969429.3
2015-Mar-27 15:32N 49°18' W 122°53'53962181.8
2015-Mar-27 13:04N 31°58' E 120°50'0 0.0
2015-Mar-27 08:26N 31°58' E 120°50'0 0.0
2015-Mar-27 07:16N 31°58' E 120°50'6117213784.3
2015-Mar-27 07:15N 33°37' W 117°55'0 0.0
2015-Mar-27 06:27N 33°37' W 117°55'61175781.0
2015-Mar-27 05:23N 31°58' E 120°50'6117146798.6
2015-Mar-27 05:21N 33°37' W 117°55'61177158.6
2015-Mar-27 04:29N 31°58' E 120°50'0 0.0
2015-Mar-27 02:33N 31°58' E 120°50'0 0.0
2015-Mar-27 01:24N 31°58' E 120°50'0 0.1
2015-Mar-27 00:33N 31°58' E 120°50'61176036.2
2015-Mar-26 23:33N 33°37' W 117°55'611742757.4
2015-Mar-26 23:24N 31°58' E 120°50'0 0.0
2015-Mar-26 22:13N 31°58' E 120°50'0 0.0
2015-Mar-26 21:28N 31°58' E 120°50'53965461.3
2015-Mar-26 20:29N 49°18' W 122°53'539654110.0
2015-Mar-26 20:23N 31°58' E 120°50'53956535.1
2015-Mar-26 19:33N 49°17' W 122°54'5395109730.4
2015-Mar-26 19:30N 31°58' E 120°50'0 0.0
2015-Mar-26 18:30N 31°58' E 120°50'5395313262.4
2015-Mar-26 18:29N 49°17' W 122°54'0 0.0
2015-Mar-26 17:32N 49°17' W 122°54'5846457503.7
2015-Mar-26 17:32N 24°48' E 118°57'4423367.6
2015-Mar-26 17:24N 31°58' E 120°50'53956245.1
2015-Mar-26 16:32N 49°17' W 122°54'539563471.1
2015-Mar-26 16:27N 31°58' E 120°50'0 0.0
2015-Mar-26 15:23N 31°58' E 120°50'0 0.0
2015-Mar-26 14:33N 31°58' E 120°50'0 0.0
2015-Mar-26 13:19N 31°58' E 120°50'0 0.1
2015-Mar-26 12:28N 31°58' E 120°50'0 0.0
2015-Mar-26 10:17N 31°58' E 120°50'810.0
2015-Mar-26 09:31N 32°00' E 120°42'8 6.8
2015-Mar-26 08:24N 31°58' E 120°50'316.8
2015-Mar-26 08:14N 32°00' E 120°49'2 1.1
2015-Mar-26 06:28N 31°58' E 120°50'61175427.7
2015-Mar-26 05:20N 33°37' W 117°55'61172045.9
2015-Mar-26 02:21N 31°58' E 120°50'0 0.0
2015-Mar-26 01:32N 31°58' E 120°50'0 0.1
2015-Mar-26 00:26N 31°58' E 120°50'138.0
2015-Mar-26 00:25N 31°58' E 120°50'4743699.7
2015-Mar-26 00:17N 24°26' E 118°10'6 8.4
2015-Mar-25 23:33N 24°25' E 118°04'4764523.2
2015-Mar-25 23:27N 31°58' E 120°50'53962791.6
2015-Mar-25 21:31N 49°18' W 122°53'591616332.8
2015-Mar-25 21:09N 24°25' E 117°52'479792.3
2015-Mar-25 20:33N 31°58' E 120°50'5382334065.8
2015-Mar-25 20:32N 49°17' W 123°12'0 0.0
2015-Mar-25 19:31N 49°17' W 123°12'5382206123.8
2015-Mar-25 19:30N 31°58' E 120°50'0 0.0
2015-Mar-25 18:33N 31°58' E 120°50'5382230662.4
2015-Mar-25 18:31N 49°17' W 123°12'538335887.9
2015-Mar-25 18:22N 31°18' E 121°33'4 4.4
2015-Mar-25 17:33N 31°21' E 121°31'53831614913.5
2015-Mar-25 17:33N 49°17' W 123°12'538224808.8
2015-Mar-25 17:20N 31°58' E 120°50'53826952.4
2015-Mar-25 16:33N 49°17' W 123°12'5380880381.1
2015-Mar-25 16:33N 31°24' E 121°31'6 5.4
2015-Mar-25 15:30N 31°28' E 121°26'4345.0
2015-Mar-25 14:33N 31°58' E 120°50'37628.8
2015-Mar-25 14:30N 31°31' E 121°21'44225.8
2015-Mar-25 14:18N 32°00' E 120°42'8 9.9
2015-Mar-25 13:31N 31°58' E 120°50'31136.3
2015-Mar-25 13:18N 31°36' E 121°16'4 5.7
2015-Mar-25 12:33N 31°39' E 121°13'2787.7
2015-Mar-25 12:14N 31°58' E 120°50'2126.9
2015-Mar-25 12:13N 31°56' E 120°52'264229.1
2015-Mar-25 12:13N 32°00' E 120°22'2836.2
2015-Mar-25 11:26N 31°51' E 120°54'7 8.4
2015-Mar-25 10:32N 31°58' E 120°50'147133.3
2015-Mar-25 10:32N 32°02' E 120°35'31194.4
2015-Mar-25 10:23N 31°47' E 121°06'2117.0
2015-Mar-25 09:09N 32°01' E 120°48'26696.7
2015-Mar-25 09:07N 31°42' E 121°09'2428275.1
2015-Mar-25 09:07N 31°59' E 120°50'2 3.5
2015-Mar-25 08:33N 31°57' E 120°52'261620.1
2015-Mar-25 08:33N 31°39' E 121°13'0 0.2
2015-Mar-25 07:33N 31°39' E 121°13'1632.7
2015-Mar-25 07:04N 31°47' E 120°58'1629.8
2015-Mar-25 06:33N 31°39' E 121°13'1166.4
2015-Mar-25 06:23N 31°46' E 121°03'1012.6
2015-Mar-25 05:34N 31°40' E 121°13'5628.0
2015-Mar-25 05:33N 31°43' E 121°08'21161.2
2015-Mar-25 05:25N 31°58' E 120°50'2731.2
2015-Mar-25 04:33N 31°39' E 121°13'124.0
2015-Mar-25 04:32N 31°40' E 121°13'6695935.2
2015-Mar-25 04:25N 22°48' E 113°36'669769.6
2015-Mar-25 03:33N 31°40' E 121°13'6586.9
2015-Mar-25 03:32N 31°36' E 121°18'32188.7
2015-Mar-25 03:22N 31°58' E 120°50'66617508.5
2015-Mar-25 03:20N 22°57' E 113°32'667104338.4
2015-Mar-25 03:19N 31°59' E 120°50'3951.0
2015-Mar-25 02:34N 31°32' E 121°23'125343.6
2015-Mar-25 02:33N 31°40' E 121°13'26544.0
2015-Mar-25 02:30N 31°58' E 120°50'4445.8
2015-Mar-25 01:34N 31°28' E 121°28'660113071.1
2015-Mar-25 01:33N 23°06' E 113°27'6603908.6
2015-Mar-25 01:23N 31°40' E 121°13'26212.2
2015-Mar-25 01:16N 31°58' E 120°50'1 8.4
2015-Mar-25 01:09N 31°58' E 120°51'6631113.2
2015-Mar-25 00:33N 23°06' E 113°27'6602375339.4
2015-Mar-25 00:33N 31°25' E 121°32'23319.7
2015-Mar-25 00:29N 31°40' E 121°13'26140.1
2015-Mar-25 00:18N 31°58' E 120°51'5269.9
2015-Mar-24 23:33N 31°22' E 121°35'660296885.5
2015-Mar-24 23:33N 23°06' E 113°27'660108013.2
2015-Mar-24 23:33N 31°40' E 121°13'660666.7
2015-Mar-24 22:33N 23°06' E 113°27'66081899.5
2015-Mar-24 22:33N 31°22' E 121°35'261121.7
2015-Mar-24 22:32N 31°40' E 121°13'0 0.0
2015-Mar-24 21:34N 31°40' E 121°13'2611778.2
2015-Mar-24 21:33N 31°22' E 121°35'66048471.1
2015-Mar-24 21:33N 23°06' E 113°27'0 0.0
2015-Mar-24 20:33N 23°06' E 113°27'66087966.7
2015-Mar-24 20:33N 31°22' E 121°35'263623.5
2015-Mar-24 20:33N 31°40' E 121°13'1 4.8
2015-Mar-24 20:21N 31°40' E 121°12'25111.0
2015-Mar-24 20:07N 31°58' E 120°50'3155.7
2015-Mar-24 19:33N 31°37' E 121°17'6602375715.4
2015-Mar-24 19:33N 23°06' E 113°27'660296887.5
2015-Mar-24 19:33N 31°22' E 121°35'261290.6
2015-Mar-24 19:32N 31°40' E 121°13'26368.1
2015-Mar-24 19:28N 31°58' E 120°50'1 3.5
2015-Mar-24 19:12N 31°58' E 120°51'5281.0
2015-Mar-24 18:33N 31°22' E 121°35'660263931.6
2015-Mar-24 18:33N 23°06' E 113°27'659215816.5
2015-Mar-24 18:33N 31°32' E 121°22'115827.5
2015-Mar-24 18:33N 31°40' E 121°13'26269.2
2015-Mar-24 18:27N 31°58' E 120°50'119.5
2015-Mar-24 18:24N 31°58' E 120°51'2630.6
2015-Mar-24 17:33N 31°40' E 121°13'2615748.2
2015-Mar-24 17:33N 31°58' E 120°50'6621191254.0
2015-Mar-24 17:33N 23°06' E 113°27'660474864.0
2015-Mar-24 17:33N 31°28' E 121°28'44822.4
2015-Mar-24 17:30N 31°58' E 120°51'511235.1
2015-Mar-24 17:28N 31°23' E 121°34'4 3.9
2015-Mar-24 16:33N 31°23' E 121°30'65736398.2
2015-Mar-24 16:32N 23°06' E 113°27'662297813.5
2015-Mar-24 16:32N 31°58' E 120°50'514299.7
2015-Mar-24 16:32N 31°23' E 121°34'512091.1
2015-Mar-24 16:30N 31°58' E 120°51'2677.0
2015-Mar-24 16:10N 31°40' E 121°13'6601088.1
2015-Mar-24 15:33N 23°06' E 113°27'65545363.2
2015-Mar-24 15:32N 31°17' E 121°34'291996.2
2015-Mar-24 15:32N 31°40' E 121°13'25482.5
2015-Mar-24 15:29N 31°23' E 121°34'51745.5
2015-Mar-24 15:24N 31°58' E 120°50'0 0.8
2015-Mar-24 15:11N 31°58' E 120°51'5182.3
2015-Mar-24 14:33N 31°23' E 121°34'65998918.5
2015-Mar-24 14:33N 23°06' E 113°27'6625659.2
2015-Mar-24 14:26N 31°58' E 120°50'037.3
2015-Mar-24 14:26N 31°58' E 120°51'26226.6
2015-Mar-24 14:19N 31°40' E 121°13'2533.2
2015-Mar-24 13:33N 31°23' E 121°34'65994961.1
2015-Mar-24 13:33N 23°06' E 113°27'6623327.5
2015-Mar-24 13:21N 31°58' E 120°50'5670.1
2015-Mar-24 12:33N 31°21' E 121°39'661396340.6
2015-Mar-24 12:33N 23°06' E 113°27'6622024.0
2015-Mar-24 12:14N 31°58' E 120°50'662975.1
2015-Mar-24 11:33N 23°06' E 113°27'66127331.5
2015-Mar-24 11:32N 31°20' E 121°39'29121.8
2015-Mar-24 11:17N 31°40' E 121°13'265236.3
2015-Mar-24 11:17N 31°58' E 120°50'662912.8
2015-Mar-24 10:33N 23°06' E 113°27'66036559.3
2015-Mar-24 10:32N 31°40' E 121°13'302954.6
2015-Mar-24 10:32N 31°20' E 121°39'661680.6
2015-Mar-24 09:33N 23°06' E 113°27'66095047.2
2015-Mar-24 09:33N 31°40' E 121°13'291325.0
2015-Mar-24 09:32N 31°20' E 121°39'56613.1
2015-Mar-24 09:26N 31°58' E 120°50'024.7
2015-Mar-24 09:26N 31°58' E 120°50'662753.2
2015-Mar-24 08:33N 23°06' E 113°27'660131911.7
2015-Mar-24 08:33N 31°36' E 121°18'231276.2
2015-Mar-24 08:32N 31°20' E 121°39'566936.9
2015-Mar-24 08:31N 31°58' E 120°50'728.9
2015-Mar-24 08:16N 32°01' E 120°43'6084.2
2015-Mar-24 07:33N 31°22' E 121°37'661297371.8
2015-Mar-24 07:33N 23°06' E 113°27'66030844.5
2015-Mar-24 07:32N 31°31' E 121°25'44111.7
2015-Mar-24 07:08N 32°01' E 120°48'5696.3
2015-Mar-24 06:33N 31°24' E 121°37'5353.3
2015-Mar-24 06:33N 31°25' E 121°32'660139690.3
2015-Mar-24 06:32N 23°06' E 113°27'661673.5
2015-Mar-24 05:33N 31°24' E 121°37'66199225.0
2015-Mar-24 05:33N 23°06' E 113°27'6621436.9
2015-Mar-24 05:05N 31°58' E 120°51'5297.8
2015-Mar-24 04:33N 31°24' E 121°37'661595341.9
2015-Mar-24 04:33N 23°06' E 113°27'6617649.5
2015-Mar-24 04:28N 31°20' E 121°40'612211.7
2015-Mar-24 04:27N 32°01' E 120°48'663747.0
2015-Mar-24 03:33N 23°06' E 113°27'6612378991.4
2015-Mar-24 03:33N 31°20' E 121°40'614131.5
2015-Mar-24 03:32N 32°01' E 120°48'561887.8
2015-Mar-24 03:31N 31°24' E 121°37'5658.9
2015-Mar-24 02:33N 32°01' E 120°48'5625249.1
2015-Mar-24 02:33N 31°24' E 121°37'66161037.0
2015-Mar-24 02:33N 23°05' E 113°28'66155302.4
2015-Mar-24 02:32N 31°20' E 121°40'5714613.7
2015-Mar-24 02:32N 31°58' E 120°51'5354.8
2015-Mar-24 01:33N 31°22' E 121°37'25680.8
2015-Mar-24 01:33N 31°24' E 121°37'66441963.0
2015-Mar-24 01:32N 22°58' E 113°32'66528181.6
2015-Mar-24 01:31N 31°58' E 120°50'4 8.0
2015-Mar-24 01:03N 32°01' E 120°48'54107.2
2015-Mar-24 00:33N 31°21' E 121°31'545236.0
2015-Mar-24 00:33N 32°01' E 120°48'457.5
2015-Mar-24 00:29N 31°58' E 120°51'523910.3
2015-Mar-24 00:28N 31°24' E 121°37'52179.5
2015-Mar-24 00:10N 31°58' E 120°50'5079.5
2015-Mar-23 23:32N 31°21' E 121°31'6217.4
2015-Mar-23 23:31N 31°24' E 121°37'0 0.0
2015-Mar-23 22:33N 31°24' E 121°37'64173.6
2015-Mar-23 22:33N 31°21' E 121°31'503174.4
2015-Mar-23 22:32N 31°58' E 120°50'310.7
2015-Mar-23 22:14N 31°56' E 120°53'4768.8
2015-Mar-23 21:33N 31°21' E 121°31'61294.9
2015-Mar-23 21:33N 31°24' E 121°37'45351.9
2015-Mar-23 21:25N 31°50' E 120°54'1656978.4
2015-Mar-23 21:25N 32°00' E 120°40'926.2
2015-Mar-23 21:04N 31°58' E 120°50'52101.9
2015-Mar-23 20:33N 31°24' E 121°37'6201.1
2015-Mar-23 20:31N 31°21' E 121°31'50354.1
2015-Mar-23 20:23N 31°58' E 120°50'0 1.0
2015-Mar-23 20:14N 31°58' E 120°50'212.8
2015-Mar-23 20:05N 31°60' E 120°50'2 2.9
2015-Mar-23 19:33N 31°58' E 120°50'0 9.9
2015-Mar-23 19:32N 31°58' E 120°50'21434.6
2015-Mar-23 19:32N 31°56' E 120°52'502960.6
2015-Mar-23 19:31N 31°24' E 121°37'665.8
2015-Mar-23 19:25N 31°21' E 121°31'6 6.5
2015-Mar-23 18:32N 31°24' E 121°37'6423.2
2015-Mar-23 18:32N 31°21' E 121°31'0 0.0
2015-Mar-23 17:33N 31°21' E 121°31'654.9
2015-Mar-23 17:26N 31°24' E 121°37'523989.1
2015-Mar-23 17:26N 31°58' E 120°51'5255.5
2015-Mar-23 16:29N 31°24' E 121°37'662.6
2015-Mar-23 16:24N 31°21' E 121°31'6 6.8
2015-Mar-23 15:33N 31°24' E 121°37'61044.3
2015-Mar-23 15:32N 31°21' E 121°31'3 7.9
2015-Mar-23 15:12N 31°24' E 121°32'3 4.2
2015-Mar-23 14:33N 31°21' E 121°31'6104.9
2015-Mar-23 14:30N 31°24' E 121°37'81130.1
2015-Mar-23 14:29N 31°21' E 121°27'3 2.8
2015-Mar-23 13:33N 31°21' E 121°31'62087.7
2015-Mar-23 13:33N 31°24' E 121°37'0 0.0
2015-Mar-23 12:33N 31°24' E 121°37'6948.5
2015-Mar-23 12:32N 31°21' E 121°31'6 5.8
2015-Mar-23 11:33N 31°24' E 121°37'610438.5
2015-Mar-23 11:33N 31°21' E 121°31'50112.9
2015-Mar-23 11:06N 31°58' E 120°50'5090.9
2015-Mar-23 10:33N 31°21' E 121°31'61898.7
2015-Mar-23 10:33N 31°24' E 121°37'59139.8
2015-Mar-23 10:07N 32°00' E 120°43'5696.7
2015-Mar-23 09:33N 31°21' E 121°30'6168.1
2015-Mar-23 09:31N 31°24' E 121°37'52423.9
2015-Mar-23 09:23N 31°58' E 120°50'5059.2
2015-Mar-23 08:32N 31°21' E 121°30'6119.8
2015-Mar-23 08:30N 31°24' E 121°37'47157.2
2015-Mar-23 08:12N 31°53' E 120°54'4570.3
2015-Mar-23 07:33N 31°21' E 121°30'6694.7
2015-Mar-23 07:33N 31°24' E 121°37'6 5.8
2015-Mar-23 06:33N 31°21' E 121°30'6651.8
2015-Mar-23 06:33N 31°24' E 121°37'6 5.9
2015-Mar-23 05:33N 31°21' E 121°30'610425.0
2015-Mar-23 05:33N 31°24' E 121°37'528544.3
2015-Mar-23 05:33N 31°58' E 120°50'35896.5
2015-Mar-23 05:31N 31°34' E 121°20'1435.1
2015-Mar-23 05:07N 31°21' E 121°26'2 3.4
2015-Mar-23 04:31N 31°22' E 121°28'191856.2
2015-Mar-23 04:30N 31°38' E 121°17'222447.3
2015-Mar-23 04:30N 31°24' E 121°37'6463.3
2015-Mar-23 04:29N 31°21' E 121°30'844.2
2015-Mar-23 04:18N 31°29' E 121°27'810.4
2015-Mar-23 03:32N 31°21' E 121°30'6128.6
2015-Mar-23 03:30N 31°24' E 121°37'585.5
2015-Mar-23 03:26N 31°25' E 121°31'171072.6
2015-Mar-23 03:25N 31°38' E 121°17'2023.3
2015-Mar-23 02:34N 31°21' E 121°30'6355.6
2015-Mar-23 02:33N 31°24' E 121°37'22538.3
2015-Mar-23 02:30N 31°38' E 121°17'46622352.9
2015-Mar-23 02:29N 24°24' E 118°06'4772576.0
2015-Mar-23 02:18N 31°58' E 120°51'5066.6
2015-Mar-23 01:33N 31°21' E 121°30'6138.0
2015-Mar-23 01:30N 31°24' E 121°37'22897.2
2015-Mar-23 01:29N 31°38' E 121°17'30366.6
2015-Mar-23 01:24N 31°58' E 120°51'5261.8
2015-Mar-23 00:33N 31°24' E 121°37'222692.6
2015-Mar-23 00:33N 31°38' E 121°17'202986.9
2015-Mar-23 00:32N 31°21' E 121°30'501183.2
2015-Mar-23 00:30N 31°58' E 120°51'0 2.1
2015-Mar-23 00:26N 31°58' E 120°50'47711675.8
2015-Mar-23 00:23N 24°24' E 118°06'459551.0
2015-Mar-22 23:33N 31°24' E 121°37'6914.6
2015-Mar-22 23:33N 31°23' E 121°30'45745670.6
2015-Mar-22 23:32N 24°21' E 118°10'2692274.5
2015-Mar-22 23:25N 23°00' E 113°31'6644209.7
2015-Mar-22 23:16N 31°58' E 120°50'5171.6
2015-Mar-22 22:33N 31°24' E 121°34'2720.4
2015-Mar-22 22:33N 31°24' E 121°37'66144929.6
2015-Mar-22 22:32N 23°06' E 113°27'0 0.0
2015-Mar-22 21:33N 23°06' E 113°27'661264581.6
2015-Mar-22 21:33N 31°24' E 121°37'310135.4
2015-Mar-22 21:33N 31°22' E 121°39'55165.6
2015-Mar-22 21:13N 31°58' E 120°50'5278.0
2015-Mar-22 20:33N 31°24' E 121°37'661140067.1
2015-Mar-22 20:33N 23°06' E 113°27'66172086.9
2015-Mar-22 20:32N 31°20' E 121°41'5729556.1
2015-Mar-22 20:32N 31°58' E 120°50'662677.2
2015-Mar-22 19:33N 23°06' E 113°27'66199214.8
2015-Mar-22 19:33N 31°24' E 121°37'526724.9
2015-Mar-22 19:32N 31°58' E 120°50'571246.3
2015-Mar-22 19:30N 31°20' E 121°41'661699.0
2015-Mar-22 18:33N 23°06' E 113°27'66138997.8
2015-Mar-22 18:32N 31°20' E 121°41'5155.6
2015-Mar-22 18:30N 31°24' E 121°37'661696.4
2015-Mar-22 17:33N 23°06' E 113°27'66128687.3
2015-Mar-22 17:32N 31°24' E 121°37'538.2
2015-Mar-22 17:23N 31°20' E 121°41'5 6.3
2015-Mar-22 16:33N 31°24' E 121°37'66127370.0
2015-Mar-22 16:32N 23°06' E 113°27'66139647.8
2015-Mar-22 16:31N 31°20' E 121°41'4213352.2
2015-Mar-22 16:23N 24°45' E 118°54'4192478.0
2015-Mar-22 16:13N 31°20' E 121°33'414623.9
2015-Mar-22 15:33N 24°49' E 118°58'415213266.3
2015-Mar-22 15:33N 31°22' E 121°30'65653689.8
2015-Mar-22 15:33N 23°06' E 113°27'66137796.1
2015-Mar-22 15:32N 31°24' E 121°37'53761.9
2015-Mar-22 15:31N 31°20' E 121°41'57163.2
2015-Mar-22 15:10N 31°58' E 120°50'6621070.7
2015-Mar-22 14:33N 23°06' E 113°27'66191582.3
2015-Mar-22 14:33N 31°24' E 121°37'5215.6
2015-Mar-22 14:31N 31°25' E 121°31'1059.8
2015-Mar-22 14:22N 31°20' E 121°41'661820.5
2015-Mar-22 13:33N 23°06' E 113°27'65998793.9
2015-Mar-22 13:33N 31°29' E 121°25'111485.8
2015-Mar-22 13:33N 31°24' E 121°37'51699.7
2015-Mar-22 13:32N 31°20' E 121°41'57139.9
2015-Mar-22 13:08N 31°58' E 120°50'5391.6
2015-Mar-22 12:33N 31°22' E 121°36'1730868.0
2015-Mar-22 12:33N 31°33' E 121°20'658394996.0
2015-Mar-22 12:33N 23°06' E 113°27'66164355.1
2015-Mar-22 12:33N 31°24' E 121°37'0 0.0
2015-Mar-22 11:33N 31°24' E 121°37'85979.4
2015-Mar-22 11:33N 31°27' E 121°28'65940203.6
2015-Mar-22 11:32N 23°06' E 113°27'65934907.3
2015-Mar-22 11:30N 31°38' E 121°14'2424.9
2015-Mar-22 10:33N 31°22' E 121°35'152214.1
2015-Mar-22 10:33N 31°31' E 121°21'6582369670.3
2015-Mar-22 10:33N 23°06' E 113°27'0 0.0
2015-Mar-22 09:34N 23°06' E 113°27'66016963.9
2015-Mar-22 09:31N 31°22' E 121°35'222112.4
2015-Mar-22 09:31N 31°37' E 121°16'2323.9
2015-Mar-22 08:33N 31°22' E 121°36'66074243.3
2015-Mar-22 08:33N 23°06' E 113°27'66091425.2
2015-Mar-22 08:32N 31°40' E 121°13'0 0.0
2015-Mar-22 07:33N 31°40' E 121°13'66162646.1
2015-Mar-22 07:33N 23°05' E 113°26'66221081.9
2015-Mar-22 07:31N 31°20' E 121°41'57202.7
2015-Mar-22 07:14N 31°58' E 120°50'2638.3
2015-Mar-22 06:33N 31°40' E 121°13'66152901.9
2015-Mar-22 06:33N 23°05' E 113°26'662794102.9
2015-Mar-22 06:33N 31°20' E 121°41'661668.6
2015-Mar-22 05:33N 23°06' E 113°27'66067916.3
2015-Mar-22 05:33N 31°40' E 121°13'3237997.3
2015-Mar-22 05:33N 31°20' E 121°41'57410.3
2015-Mar-22 05:24N 31°58' E 120°50'5564.8
2015-Mar-22 04:33N 31°21' E 121°38'317019.8
2015-Mar-22 04:33N 31°41' E 121°10'659474815.7
2015-Mar-22 04:33N 23°06' E 113°27'6627007.3
2015-Mar-22 04:27N 31°58' E 120°50'662734.7
2015-Mar-22 03:33N 23°06' E 113°27'660139660.4
2015-Mar-22 03:33N 31°24' E 121°33'49480.8
2015-Mar-22 03:27N 31°58' E 120°51'162108.2
2015-Mar-22 03:27N 31°46' E 121°03'2528.1
2015-Mar-22 02:33N 31°29' E 121°24'659592681.9
2015-Mar-22 02:33N 23°06' E 113°27'660660.3
2015-Mar-22 01:33N 31°37' E 121°16'285339.9
2015-Mar-22 01:33N 31°56' E 120°52'31019.2
2015-Mar-22 01:33N 31°58' E 120°50'0137.5
2015-Mar-22 01:33N 31°58' E 120°51'5 4.7
2015-Mar-22 00:32N 32°00' E 120°46'32290.1
2015-Mar-22 00:26N 31°38' E 121°14'28928.4
2015-Mar-22 00:24N 31°58' E 120°50'2832.5
2015-Mar-21 23:32N 31°38' E 121°14'28370.0
2015-Mar-21 23:28N 31°58' E 120°50'12148.7
2015-Mar-21 23:23N 32°00' E 120°37'3845.1
2015-Mar-21 22:33N 31°38' E 121°14'28220.4
2015-Mar-21 22:25N 31°58' E 120°50'1860.4
2015-Mar-21 22:07N 32°04' E 120°30'1833.0
2015-Mar-21 21:33N 31°58' E 120°50'281315.5
2015-Mar-21 21:32N 31°38' E 121°14'2860.7
2015-Mar-21 21:04N 31°58' E 120°50'2851.9
2015-Mar-21 20:32N 31°38' E 121°14'0 0.0
2015-Mar-21 19:32N 31°38' E 121°14'2828.4
2015-Mar-21 18:33N 31°58' E 120°50'28391.0
2015-Mar-21 18:29N 31°38' E 121°14'28391.2
2015-Mar-21 18:25N 31°58' E 120°50'0 0.1
2015-Mar-21 17:33N 31°58' E 120°50'28480.0
2015-Mar-21 17:29N 31°38' E 121°14'2890.5
2015-Mar-21 17:11N 31°58' E 120°51'2843.1
2015-Mar-21 16:32N 31°38' E 121°14'0 0.0
2015-Mar-21 15:33N 31°38' E 121°14'2861.6
2015-Mar-21 15:05N 31°59' E 120°51'2140.3
2015-Mar-21 14:33N 31°43' E 121°08'628.1
2015-Mar-21 14:20N 31°39' E 121°13'3846.9
2015-Mar-21 13:32N 31°60' E 120°37'2110867.2
2015-Mar-21 13:31N 31°47' E 120°57'1234.8
2015-Mar-21 13:11N 31°58' E 120°51'3 5.6
2015-Mar-21 12:33N 31°55' E 120°53'9 8.9
2015-Mar-21 11:33N 32°00' E 120°45'939.8
2015-Mar-21 11:19N 31°54' E 120°53'1722.0
2015-Mar-21 10:33N 32°02' E 120°35'12361.8
2015-Mar-21 10:31N 31°60' E 120°49'1717.6
2015-Mar-21 09:33N 32°04' E 120°30'19108.2
2015-Mar-21 09:23N 31°58' E 120°51'2428.7
2015-Mar-21 08:33N 32°01' E 120°23'7 6.7
2015-Mar-21 07:33N 31°57' E 120°17'291151.3
2015-Mar-21 07:32N 31°58' E 120°50'3838.3
2015-Mar-21 06:33N 31°57' E 120°06'1110.7
2015-Mar-21 05:33N 32°03' E 119°56'69822.1
2015-Mar-21 05:28N 31°40' E 121°13'7 7.1
2015-Mar-21 04:31N 31°35' E 121°18'6 6.1
2015-Mar-21 03:30N 31°31' E 121°24'5 5.3
2015-Mar-21 02:33N 31°28' E 121°28'441201.7
2015-Mar-21 02:30N 31°58' E 120°51'830.4
2015-Mar-21 02:15N 32°04' E 120°45'5577.0
2015-Mar-21 01:33N 31°25' E 121°31'4747.7
2015-Mar-21 00:33N 31°58' E 120°51'4843631.9
2015-Mar-21 00:33N 31°23' E 121°30'6 6.1
2015-Mar-20 23:31N 31°17' E 121°34'608530174.1
2015-Mar-20 23:19N 33°45' W 118°11'6098708126.1
2015-Mar-20 23:18N 31°58' E 120°51'7499.3
2015-Mar-20 22:33N 31°58' E 122°18'7474.5
2015-Mar-20 21:33N 31°58' E 120°51'0 0.1
2015-Mar-20 20:24N 31°58' E 120°50'0 0.0
2015-Mar-20 19:30N 31°58' E 120°50'0 0.0
2015-Mar-20 17:27N 31°58' E 120°50'0 0.0
2015-Mar-20 15:03N 31°58' E 120°51'0 0.0
2015-Mar-20 13:24N 31°58' E 120°51'0 0.0
2015-Mar-20 10:09N 31°58' E 120°51'666699.5
2015-Mar-20 09:12N 22°58' E 113°32'6 9.2
2015-Mar-20 08:33N 23°03' E 113°30'61551464.6
2015-Mar-20 08:33N 29°49' E 122°06'144587.4
2015-Mar-20 08:18N 31°58' E 120°51'662895.4
2015-Mar-20 07:33N 23°06' E 113°27'619742393.7
2015-Mar-20 07:33N 29°56' E 122°05'  
Track history (hours):
 
Tides and Currents Weather Stations Pressure Air Temp Water Temp Dewpoint Dewpoint Depression Visibility Wind Speed Wind Dir Waves Ship Positions

Paulistana II

Last reported at 2015-Mar-30 06:33 UTC. Time now 2015-Mar-30 07:04 UTC.
Position N 31°23' E 121°36'.

Length 6 m.

Type: Pollution control. MMSI: 316014038.

Date/timePositionNaut miles runAvg speedWind from/ knotsBaromVisibWave heightAir tempDewpointWater temp
2015-Mar-30 06:33N 31°23' E 121°36'38024022.7
2015-Mar-30 06:32N 37°43' E 121°05'380370.5
2015-Mar-30 05:31N 31°23' E 121°36'521298.0
2015-Mar-30 05:28N 31°58' E 120°50'1448.2
2015-Mar-30 05:10N 32°02' E 120°34'6699.4
2015-Mar-30 04:31N 31°23' E 121°36'3805704.9
2015-Mar-30 04:27N 37°43' E 121°05'3451420.0
2015-Mar-30 04:12N 31°58' E 120°50'5275.8
2015-Mar-30 03:31N 31°23' E 121°36'52941.1
2015-Mar-30 03:27N 31°58' E 120°50'5255.3
2015-Mar-30 02:31N 31°23' E 121°36'52859.4
2015-Mar-30 02:27N 31°58' E 120°50'415.6
2015-Mar-30 02:10N 31°54' E 120°53'611676721.5
2015-Mar-30 02:05N 33°37' W 117°55'609810667.2
2015-Mar-30 01:31N 31°23' E 121°36'52821.8
2015-Mar-30 01:27N 31°58' E 120°50'3502435.1
2015-Mar-30 01:18N 37°47' E 121°10'384485.7
2015-Mar-30 00:31N 31°23' E 121°36'6098207103.9
2015-Mar-30 00:29N 33°37' W 117°55'590492409.1
2015-Mar-30 00:25N 37°43' E 121°05'3452064.0
2015-Mar-30 00:15N 31°58' E 120°50'0 0.1
2015-Mar-29 23:29N 31°58' E 120°50'52748.4
2015-Mar-29 23:25N 31°23' E 121°36'60986940.6
2015-Mar-29 22:32N 33°37' W 117°55'6098277886.3
2015-Mar-29 22:31N 31°23' E 121°36'411.1
2015-Mar-29 22:06N 31°20' E 121°33'2 4.2
2015-Mar-29 21:33N 31°21' E 121°30'6171.7
2015-Mar-29 21:31N 31°23' E 121°36'6098217358.5
2015-Mar-29 21:29N 33°37' W 117°55'60986277.7
2015-Mar-29 20:31N 31°23' E 121°36'52940.9
2015-Mar-29 20:31N 31°25' E 121°31'5 5.6
2015-Mar-29 19:33N 31°28' E 121°26'10224.7
2015-Mar-29 19:31N 31°23' E 121°36'1616.0
2015-Mar-29 18:33N 31°31' E 121°21'15489.0
2015-Mar-29 18:31N 31°23' E 121°36'0 0.1
2015-Mar-29 17:28N 31°23' E 121°36'21354.4
2015-Mar-29 17:24N 31°36' E 121°16'2122.9
2015-Mar-29 16:28N 31°23' E 121°36'0 0.1
2015-Mar-29 15:31N 31°23' E 121°36'52811.0
2015-Mar-29 15:27N 31°58' E 120°50'2072.0
2015-Mar-29 15:10N 31°44' E 121°06'3352.9
2015-Mar-29 14:33N 31°23' E 121°36'4 3.6
2015-Mar-29 13:33N 31°20' E 121°39'0 0.0
2015-Mar-29 12:27N 31°20' E 121°39'0 0.0
2015-Mar-29 11:33N 31°20' E 121°39'602462.8
2015-Mar-29 11:32N 32°00' E 120°47'6061.0
2015-Mar-29 10:33N 31°20' E 121°39'8446.6
2015-Mar-29 10:32N 31°23' E 121°30'8 8.0
2015-Mar-29 09:33N 31°20' E 121°39'55175.5
2015-Mar-29 09:14N 31°58' E 120°51'5575.2
2015-Mar-29 08:30N 31°20' E 121°39'0 0.0
2015-Mar-29 07:33N 31°20' E 121°39'764880.9
2015-Mar-29 07:32N 32°02' E 120°24'24452.5
2015-Mar-29 07:29N 31°58' E 120°51'5559.3
2015-Mar-29 06:33N 31°20' E 121°39'6098430436.7
2015-Mar-29 06:32N 33°37' W 117°55'6116153958.8
2015-Mar-29 06:30N 31°58' E 120°51'5558.5
2015-Mar-29 05:33N 31°20' E 121°39'55117.5
2015-Mar-29 05:05N 31°58' E 120°51'55104.8
2015-Mar-29 04:33N 31°20' E 121°39'6098422158.9
2015-Mar-29 04:32N 33°37' W 117°55'60986190.7
2015-Mar-29 03:33N 31°20' E 121°39'6098414193.4
2015-Mar-29 03:32N 33°37' W 117°55'60986204.9
2015-Mar-29 02:33N 31°21' E 121°38'609852021.3
2015-Mar-29 02:26N 33°37' W 117°55'61026912.3
2015-Mar-29 01:33N 31°25' E 121°31'4796.0
2015-Mar-29 01:04N 31°58' E 120°51'4181.0
2015-Mar-29 00:33N 31°29' E 121°25'610450752.9
2015-Mar-29 00:26N 33°37' W 117°55'61076939.6
2015-Mar-28 23:33N 31°33' E 121°19'610719100.4
2015-Mar-28 23:14N 33°37' W 117°55'6108338307.8
2015-Mar-28 23:13N 31°40' E 121°13'26486.4
2015-Mar-28 23:10N 31°58' E 120°51'2745.3
2015-Mar-28 22:34N 31°39' E 121°14'2660.3
2015-Mar-28 22:33N 31°37' E 121°16'30135.6
2015-Mar-28 22:20N 31°58' E 120°51'48283.5
2015-Mar-28 22:10N 31°21' E 121°26'1321.3
2015-Mar-28 21:33N 31°33' E 121°20'153930.5
2015-Mar-28 21:33N 31°43' E 121°07'282873.4
2015-Mar-28 21:32N 31°22' E 121°28'3533.8
2015-Mar-28 20:29N 31°47' E 120°58'294002.5
2015-Mar-28 20:29N 31°30' E 121°26'610389679.1
2015-Mar-28 20:25N 33°37' W 117°55'61027139.4
2015-Mar-28 19:33N 31°26' E 121°30'413487.5
2015-Mar-28 19:33N 31°53' E 120°53'9 8.6
2015-Mar-28 18:33N 32°00' E 120°48'5262056.1
2015-Mar-28 18:33N 31°23' E 121°30'5857.7
2015-Mar-28 17:33N 31°60' E 120°38'11140.2
2015-Mar-28 17:29N 31°58' E 120°51'551983.0
2015-Mar-28 17:27N 31°17' E 121°34'7280.9
2015-Mar-28 16:33N 32°04' E 120°29'8 7.9
2015-Mar-28 15:33N 31°60' E 120°22'8 8.1
2015-Mar-28 14:33N 31°56' E 120°13'9 8.8
2015-Mar-28 13:33N 31°58' E 120°03'9 9.0
2015-Mar-28 12:34N 32°04' E 119°56'9079.5
2015-Mar-28 11:26N 31°24' E 121°31'976117.1
2015-Mar-28 11:25N 32°14' E 119°53'5222.9
2015-Mar-28 09:08N 31°58' E 120°51'1 0.2
2015-Mar-28 05:23N 31°58' E 120°50'611761166.1
2015-Mar-28 05:17N 33°37' W 117°55'61178207.2
2015-Mar-28 04:33N 31°58' E 120°50'450415.6
2015-Mar-28 03:28N 39°04' E 117°52'4502196.4
2015-Mar-28 03:15N 31°58' E 120°50'0 0.1
2015-Mar-28 02:03N 31°58' E 120°50'61172439.6
2015-Mar-27 23:32N 33°37' W 117°55'611740182.2
2015-Mar-27 23:23N 31°58' E 120°50'61176815.2
2015-Mar-27 22:29N 33°37' W 117°55'611749042.0
2015-Mar-27 22:22N 31°58' E 120°50'61176273.5
2015-Mar-27 21:23N 33°37' W 117°55'611739250.9
2015-Mar-27 21:14N 31°58' E 120°50'0 0.0
2015-Mar-27 20:33N 31°58' E 120°50'0 0.0
2015-Mar-27 19:30N 31°58' E 120°50'0 0.0
2015-Mar-27 18:12N 31°58' E 120°50'8362.1
2015-Mar-27 18:11N 31°50' E 120°54'54003238.7
2015-Mar-27 16:31N 49°18' W 122°53'539618822.2
2015-Mar-27 16:14N 31°58' E 120°50'324.8
2015-Mar-27 16:06N 32°00' E 120°48'53969429.3
2015-Mar-27 15:32N 49°18' W 122°53'53962181.8
2015-Mar-27 13:04N 31°58' E 120°50'0 0.0
2015-Mar-27 08:26N 31°58' E 120°50'0 0.0
2015-Mar-27 07:16N 31°58' E 120°50'6117213784.3
2015-Mar-27 07:15N 33°37' W 117°55'0 0.0
2015-Mar-27 06:27N 33°37' W 117°55'61175781.0
2015-Mar-27 05:23N 31°58' E 120°50'6117146798.6
2015-Mar-27 05:21N 33°37' W 117°55'61177158.6
2015-Mar-27 04:29N 31°58' E 120°50'0 0.0
2015-Mar-27 02:33N 31°58' E 120°50'0 0.0
2015-Mar-27 01:24N 31°58' E 120°50'0 0.1
2015-Mar-27 00:33N 31°58' E 120°50'61176036.2
2015-Mar-26 23:33N 33°37' W 117°55'611742757.4
2015-Mar-26 23:24N 31°58' E 120°50'0 0.0
2015-Mar-26 22:13N 31°58' E 120°50'0 0.0
2015-Mar-26 21:28N 31°58' E 120°50'53965461.3
2015-Mar-26 20:29N 49°18' W 122°53'539654110.0
2015-Mar-26 20:23N 31°58' E 120°50'53956535.1
2015-Mar-26 19:33N 49°17' W 122°54'5395109730.4
2015-Mar-26 19:30N 31°58' E 120°50'0 0.0
2015-Mar-26 18:30N 31°58' E 120°50'5395313262.4
2015-Mar-26 18:29N 49°17' W 122°54'0 0.0
2015-Mar-26 17:32N 49°17' W 122°54'5846457503.7
2015-Mar-26 17:32N 24°48' E 118°57'4423367.6
2015-Mar-26 17:24N 31°58' E 120°50'53956245.1
2015-Mar-26 16:32N 49°17' W 122°54'539563471.1
2015-Mar-26 16:27N 31°58' E 120°50'0 0.0
2015-Mar-26 15:23N 31°58' E 120°50'0 0.0
2015-Mar-26 14:33N 31°58' E 120°50'0 0.0
2015-Mar-26 13:19N 31°58' E 120°50'0 0.1
2015-Mar-26 12:28N 31°58' E 120°50'0 0.0
2015-Mar-26 10:17N 31°58' E 120°50'810.0
2015-Mar-26 09:31N 32°00' E 120°42'8 6.8
2015-Mar-26 08:24N 31°58' E 120°50'316.8
2015-Mar-26 08:14N 32°00' E 120°49'2 1.1
2015-Mar-26 06:28N 31°58' E 120°50'61175427.7
2015-Mar-26 05:20N 33°37' W 117°55'61172045.9
2015-Mar-26 02:21N 31°58' E 120°50'0 0.0
2015-Mar-26 01:32N 31°58' E 120°50'0 0.1
2015-Mar-26 00:26N 31°58' E 120°50'138.0
2015-Mar-26 00:25N 31°58' E 120°50'4743699.7
2015-Mar-26 00:17N 24°26' E 118°10'6 8.4
2015-Mar-25 23:33N 24°25' E 118°04'4764523.2
2015-Mar-25 23:27N 31°58' E 120°50'53962791.6
2015-Mar-25 21:31N 49°18' W 122°53'591616332.8
2015-Mar-25 21:09N 24°25' E 117°52'479792.3
2015-Mar-25 20:33N 31°58' E 120°50'5382334065.8
2015-Mar-25 20:32N 49°17' W 123°12'0 0.0
2015-Mar-25 19:31N 49°17' W 123°12'5382206123.8
2015-Mar-25 19:30N 31°58' E 120°50'0 0.0
2015-Mar-25 18:33N 31°58' E 120°50'5382230662.4
2015-Mar-25 18:31N 49°17' W 123°12'538335887.9
2015-Mar-25 18:22N 31°18' E 121°33'4 4.4
2015-Mar-25 17:33N 31°21' E 121°31'53831614913.5
2015-Mar-25 17:33N 49°17' W 123°12'538224808.8
2015-Mar-25 17:20N 31°58' E 120°50'53826952.4
2015-Mar-25 16:33N 49°17' W 123°12'5380880381.1
2015-Mar-25 16:33N 31°24' E 121°31'6 5.4
2015-Mar-25 15:30N 31°28' E 121°26'4345.0
2015-Mar-25 14:33N 31°58' E 120°50'37628.8
2015-Mar-25 14:30N 31°31' E 121°21'44225.8
2015-Mar-25 14:18N 32°00' E 120°42'8 9.9
2015-Mar-25 13:31N 31°58' E 120°50'31136.3
2015-Mar-25 13:18N 31°36' E 121°16'4 5.7
2015-Mar-25 12:33N 31°39' E 121°13'2787.7
2015-Mar-25 12:14N 31°58' E 120°50'2126.9
2015-Mar-25 12:13N 31°56' E 120°52'264229.1
2015-Mar-25 12:13N 32°00' E 120°22'2836.2
2015-Mar-25 11:26N 31°51' E 120°54'7 8.4
2015-Mar-25 10:32N 31°58' E 120°50'147133.3
2015-Mar-25 10:32N 32°02' E 120°35'31194.4
2015-Mar-25 10:23N 31°47' E 121°06'2117.0
2015-Mar-25 09:09N 32°01' E 120°48'26696.7
2015-Mar-25 09:07N 31°42' E 121°09'2428275.1
2015-Mar-25 09:07N 31°59' E 120°50'2 3.5
2015-Mar-25 08:33N 31°57' E 120°52'261620.1
2015-Mar-25 08:33N 31°39' E 121°13'0 0.2
2015-Mar-25 07:33N 31°39' E 121°13'1632.7
2015-Mar-25 07:04N 31°47' E 120°58'1629.8
2015-Mar-25 06:33N 31°39' E 121°13'1166.4
2015-Mar-25 06:23N 31°46' E 121°03'1012.6
2015-Mar-25 05:34N 31°40' E 121°13'5628.0
2015-Mar-25 05:33N 31°43' E 121°08'21161.2
2015-Mar-25 05:25N 31°58' E 120°50'2731.2
2015-Mar-25 04:33N 31°39' E 121°13'124.0
2015-Mar-25 04:32N 31°40' E 121°13'6695935.2
2015-Mar-25 04:25N 22°48' E 113°36'669769.6
2015-Mar-25 03:33N 31°40' E 121°13'6586.9
2015-Mar-25 03:32N 31°36' E 121°18'32188.7
2015-Mar-25 03:22N 31°58' E 120°50'66617508.5
2015-Mar-25 03:20N 22°57' E 113°32'667104338.4
2015-Mar-25 03:19N 31°59' E 120°50'3951.0
2015-Mar-25 02:34N 31°32' E 121°23'125343.6
2015-Mar-25 02:33N 31°40' E 121°13'26544.0
2015-Mar-25 02:30N 31°58' E 120°50'4445.8
2015-Mar-25 01:34N 31°28' E 121°28'660113071.1
2015-Mar-25 01:33N 23°06' E 113°27'6603908.6
2015-Mar-25 01:23N 31°40' E 121°13'26212.2
2015-Mar-25 01:16N 31°58' E 120°50'1 8.4
2015-Mar-25 01:09N 31°58' E 120°51'6631113.2
2015-Mar-25 00:33N 23°06' E 113°27'6602375339.4
2015-Mar-25 00:33N 31°25' E 121°32'23319.7
2015-Mar-25 00:29N 31°40' E 121°13'26140.1
2015-Mar-25 00:18N 31°58' E 120°51'5269.9
2015-Mar-24 23:33N 31°22' E 121°35'660296885.5
2015-Mar-24 23:33N 23°06' E 113°27'660108013.2
2015-Mar-24 23:33N 31°40' E 121°13'660666.7
2015-Mar-24 22:33N 23°06' E 113°27'66081899.5
2015-Mar-24 22:33N 31°22' E 121°35'261121.7
2015-Mar-24 22:32N 31°40' E 121°13'0 0.0
2015-Mar-24 21:34N 31°40' E 121°13'2611778.2
2015-Mar-24 21:33N 31°22' E 121°35'66048471.1
2015-Mar-24 21:33N 23°06' E 113°27'0 0.0
2015-Mar-24 20:33N 23°06' E 113°27'66087966.7
2015-Mar-24 20:33N 31°22' E 121°35'263623.5
2015-Mar-24 20:33N 31°40' E 121°13'1 4.8
2015-Mar-24 20:21N 31°40' E 121°12'25111.0
2015-Mar-24 20:07N 31°58' E 120°50'3155.7
2015-Mar-24 19:33N 31°37' E 121°17'6602375715.4
2015-Mar-24 19:33N 23°06' E 113°27'660296887.5
2015-Mar-24 19:33N 31°22' E 121°35'261290.6
2015-Mar-24 19:32N 31°40' E 121°13'26368.1
2015-Mar-24 19:28N 31°58' E 120°50'1 3.5
2015-Mar-24 19:12N 31°58' E 120°51'5281.0
2015-Mar-24 18:33N 31°22' E 121°35'660263931.6
2015-Mar-24 18:33N 23°06' E 113°27'659215816.5
2015-Mar-24 18:33N 31°32' E 121°22'115827.5
2015-Mar-24 18:33N 31°40' E 121°13'26269.2
2015-Mar-24 18:27N 31°58' E 120°50'119.5
2015-Mar-24 18:24N 31°58' E 120°51'2630.6
2015-Mar-24 17:33N 31°40' E 121°13'2615748.2
2015-Mar-24 17:33N 31°58' E 120°50'6621191254.0
2015-Mar-24 17:33N 23°06' E 113°27'660474864.0
2015-Mar-24 17:33N 31°28' E 121°28'44822.4
2015-Mar-24 17:30N 31°58' E 120°51'511235.1
2015-Mar-24 17:28N 31°23' E 121°34'4 3.9
2015-Mar-24 16:33N 31°23' E 121°30'65736398.2
2015-Mar-24 16:32N 23°06' E 113°27'662297813.5
2015-Mar-24 16:32N 31°58' E 120°50'514299.7
2015-Mar-24 16:32N 31°23' E 121°34'512091.1
2015-Mar-24 16:30N 31°58' E 120°51'2677.0
2015-Mar-24 16:10N 31°40' E 121°13'6601088.1
2015-Mar-24 15:33N 23°06' E 113°27'65545363.2
2015-Mar-24 15:32N 31°17' E 121°34'291996.2
2015-Mar-24 15:32N 31°40' E 121°13'25482.5
2015-Mar-24 15:29N 31°23' E 121°34'51745.5
2015-Mar-24 15:24N 31°58' E 120°50'0 0.8
2015-Mar-24 15:11N 31°58' E 120°51'5182.3
2015-Mar-24 14:33N 31°23' E 121°34'65998918.5
2015-Mar-24 14:33N 23°06' E 113°27'6625659.2
2015-Mar-24 14:26N 31°58' E 120°50'037.3
2015-Mar-24 14:26N 31°58' E 120°51'26226.6
2015-Mar-24 14:19N 31°40' E 121°13'2533.2
2015-Mar-24 13:33N 31°23' E 121°34'65994961.1
2015-Mar-24 13:33N 23°06' E 113°27'6623327.5
2015-Mar-24 13:21N 31°58' E 120°50'5670.1
2015-Mar-24 12:33N 31°21' E 121°39'661396340.6
2015-Mar-24 12:33N 23°06' E 113°27'6622024.0
2015-Mar-24 12:14N 31°58' E 120°50'662975.1
2015-Mar-24 11:33N 23°06' E 113°27'66127331.5
2015-Mar-24 11:32N 31°20' E 121°39'29121.8
2015-Mar-24 11:17N 31°40' E 121°13'265236.3
2015-Mar-24 11:17N 31°58' E 120°50'662912.8
2015-Mar-24 10:33N 23°06' E 113°27'66036559.3
2015-Mar-24 10:32N 31°40' E 121°13'302954.6
2015-Mar-24 10:32N 31°20' E 121°39'661680.6
2015-Mar-24 09:33N 23°06' E 113°27'66095047.2
2015-Mar-24 09:33N 31°40' E 121°13'291325.0
2015-Mar-24 09:32N 31°20' E 121°39'56613.1
2015-Mar-24 09:26N 31°58' E 120°50'024.7
2015-Mar-24 09:26N 31°58' E 120°50'662753.2
2015-Mar-24 08:33N 23°06' E 113°27'660131911.7
2015-Mar-24 08:33N 31°36' E 121°18'231276.2
2015-Mar-24 08:32N 31°20' E 121°39'566936.9
2015-Mar-24 08:31N 31°58' E 120°50'728.9
2015-Mar-24 08:16N 32°01' E 120°43'6084.2
2015-Mar-24 07:33N 31°22' E 121°37'661297371.8
2015-Mar-24 07:33N 23°06' E 113°27'66030844.5
2015-Mar-24 07:32N 31°31' E 121°25'44111.7
2015-Mar-24 07:08N 32°01' E 120°48'5696.3
2015-Mar-24 06:33N 31°24' E 121°37'5353.3
2015-Mar-24 06:33N 31°25' E 121°32'660139690.3
2015-Mar-24 06:32N 23°06' E 113°27'661673.5
2015-Mar-24 05:33N 31°24' E 121°37'66199225.0
2015-Mar-24 05:33N 23°06' E 113°27'6621436.9
2015-Mar-24 05:05N 31°58' E 120°51'5297.8
2015-Mar-24 04:33N 31°24' E 121°37'661595341.9
2015-Mar-24 04:33N 23°06' E 113°27'6617649.5
2015-Mar-24 04:28N 31°20' E 121°40'612211.7
2015-Mar-24 04:27N 32°01' E 120°48'663747.0
2015-Mar-24 03:33N 23°06' E 113°27'6612378991.4
2015-Mar-24 03:33N 31°20' E 121°40'614131.5
2015-Mar-24 03:32N 32°01' E 120°48'561887.8
2015-Mar-24 03:31N 31°24' E 121°37'5658.9
2015-Mar-24 02:33N 32°01' E 120°48'5625249.1
2015-Mar-24 02:33N 31°24' E 121°37'66161037.0
2015-Mar-24 02:33N 23°05' E 113°28'66155302.4
2015-Mar-24 02:32N 31°20' E 121°40'5714613.7
2015-Mar-24 02:32N 31°58' E 120°51'5354.8
2015-Mar-24 01:33N 31°22' E 121°37'25680.8
2015-Mar-24 01:33N 31°24' E 121°37'66441963.0
2015-Mar-24 01:32N 22°58' E 113°32'66528181.6
2015-Mar-24 01:31N 31°58' E 120°50'4 8.0
2015-Mar-24 01:03N 32°01' E 120°48'54107.2
2015-Mar-24 00:33N 31°21' E 121°31'545236.0
2015-Mar-24 00:33N 32°01' E 120°48'457.5
2015-Mar-24 00:29N 31°58' E 120°51'523910.3
2015-Mar-24 00:28N 31°24' E 121°37'52179.5
2015-Mar-24 00:10N 31°58' E 120°50'5079.5
2015-Mar-23 23:32N 31°21' E 121°31'6217.4
2015-Mar-23 23:31N 31°24' E 121°37'0 0.0
2015-Mar-23 22:33N 31°24' E 121°37'64173.6
2015-Mar-23 22:33N 31°21' E 121°31'503174.4
2015-Mar-23 22:32N 31°58' E 120°50'310.7
2015-Mar-23 22:14N 31°56' E 120°53'4768.8
2015-Mar-23 21:33N 31°21' E 121°31'61294.9
2015-Mar-23 21:33N 31°24' E 121°37'45351.9
2015-Mar-23 21:25N 31°50' E 120°54'1656978.4
2015-Mar-23 21:25N 32°00' E 120°40'926.2
2015-Mar-23 21:04N 31°58' E 120°50'52101.9
2015-Mar-23 20:33N 31°24' E 121°37'6201.1
2015-Mar-23 20:31N 31°21' E 121°31'50354.1
2015-Mar-23 20:23N 31°58' E 120°50'0 1.0
2015-Mar-23 20:14N 31°58' E 120°50'212.8
2015-Mar-23 20:05N 31°60' E 120°50'2 2.9
2015-Mar-23 19:33N 31°58' E 120°50'0 9.9
2015-Mar-23 19:32N 31°58' E 120°50'21434.6
2015-Mar-23 19:32N 31°56' E 120°52'502960.6
2015-Mar-23 19:31N 31°24' E 121°37'665.8
2015-Mar-23 19:25N 31°21' E 121°31'6 6.5
2015-Mar-23 18:32N 31°24' E 121°37'6423.2
2015-Mar-23 18:32N 31°21' E 121°31'0 0.0
2015-Mar-23 17:33N 31°21' E 121°31'654.9
2015-Mar-23 17:26N 31°24' E 121°37'523989.1
2015-Mar-23 17:26N 31°58' E 120°51'5255.5
2015-Mar-23 16:29N 31°24' E 121°37'662.6
2015-Mar-23 16:24N 31°21' E 121°31'6 6.8
2015-Mar-23 15:33N 31°24' E 121°37'61044.3
2015-Mar-23 15:32N 31°21' E 121°31'3 7.9
2015-Mar-23 15:12N 31°24' E 121°32'3 4.2
2015-Mar-23 14:33N 31°21' E 121°31'6104.9
2015-Mar-23 14:30N 31°24' E 121°37'81130.1
2015-Mar-23 14:29N 31°21' E 121°27'3 2.8
2015-Mar-23 13:33N 31°21' E 121°31'62087.7
2015-Mar-23 13:33N 31°24' E 121°37'0 0.0
2015-Mar-23 12:33N 31°24' E 121°37'6948.5
2015-Mar-23 12:32N 31°21' E 121°31'6 5.8
2015-Mar-23 11:33N 31°24' E 121°37'610438.5
2015-Mar-23 11:33N 31°21' E 121°31'50112.9
2015-Mar-23 11:06N 31°58' E 120°50'5090.9
2015-Mar-23 10:33N 31°21' E 121°31'61898.7
2015-Mar-23 10:33N 31°24' E 121°37'59139.8
2015-Mar-23 10:07N 32°00' E 120°43'5696.7
2015-Mar-23 09:33N 31°21' E 121°30'6168.1
2015-Mar-23 09:31N 31°24' E 121°37'52423.9
2015-Mar-23 09:23N 31°58' E 120°50'5059.2
2015-Mar-23 08:32N 31°21' E 121°30'6119.8
2015-Mar-23 08:30N 31°24' E 121°37'47157.2
2015-Mar-23 08:12N 31°53' E 120°54'4570.3
2015-Mar-23 07:33N 31°21' E 121°30'6694.7
2015-Mar-23 07:33N 31°24' E 121°37'6 5.8
2015-Mar-23 06:33N 31°21' E 121°30'6651.8
2015-Mar-23 06:33N 31°24' E 121°37'6 5.9
2015-Mar-23 05:33N 31°21' E 121°30'610425.0
2015-Mar-23 05:33N 31°24' E 121°37'528544.3
2015-Mar-23 05:33N 31°58' E 120°50'35896.5
2015-Mar-23 05:31N 31°34' E 121°20'1435.1
2015-Mar-23 05:07N 31°21' E 121°26'2 3.4
2015-Mar-23 04:31N 31°22' E 121°28'191856.2
2015-Mar-23 04:30N 31°38' E 121°17'222447.3
2015-Mar-23 04:30N 31°24' E 121°37'6463.3
2015-Mar-23 04:29N 31°21' E 121°30'844.2
2015-Mar-23 04:18N 31°29' E 121°27'810.4
2015-Mar-23 03:32N 31°21' E 121°30'6128.6
2015-Mar-23 03:30N 31°24' E 121°37'585.5
2015-Mar-23 03:26N 31°25' E 121°31'171072.6
2015-Mar-23 03:25N 31°38' E 121°17'2023.3
2015-Mar-23 02:34N 31°21' E 121°30'6355.6
2015-Mar-23 02:33N 31°24' E 121°37'22538.3
2015-Mar-23 02:30N 31°38' E 121°17'46622352.9
2015-Mar-23 02:29N 24°24' E 118°06'4772576.0
2015-Mar-23 02:18N 31°58' E 120°51'5066.6
2015-Mar-23 01:33N 31°21' E 121°30'6138.0
2015-Mar-23 01:30N 31°24' E 121°37'22897.2
2015-Mar-23 01:29N 31°38' E 121°17'30366.6
2015-Mar-23 01:24N 31°58' E 120°51'5261.8
2015-Mar-23 00:33N 31°24' E 121°37'222692.6
2015-Mar-23 00:33N 31°38' E 121°17'202986.9
2015-Mar-23 00:32N 31°21' E 121°30'501183.2
2015-Mar-23 00:30N 31°58' E 120°51'0 2.1
2015-Mar-23 00:26N 31°58' E 120°50'47711675.8
2015-Mar-23 00:23N 24°24' E 118°06'459551.0
2015-Mar-22 23:33N 31°24' E 121°37'6914.6
2015-Mar-22 23:33N 31°23' E 121°30'45745670.6
2015-Mar-22 23:32N 24°21' E 118°10'2692274.5
2015-Mar-22 23:25N 23°00' E 113°31'6644209.7
2015-Mar-22 23:16N 31°58' E 120°50'5171.6
2015-Mar-22 22:33N 31°24' E 121°34'2720.4
2015-Mar-22 22:33N 31°24' E 121°37'66144929.6
2015-Mar-22 22:32N 23°06' E 113°27'0 0.0
2015-Mar-22 21:33N 23°06' E 113°27'661264581.6
2015-Mar-22 21:33N 31°24' E 121°37'310135.4
2015-Mar-22 21:33N 31°22' E 121°39'55165.6
2015-Mar-22 21:13N 31°58' E 120°50'5278.0
2015-Mar-22 20:33N 31°24' E 121°37'661140067.1
2015-Mar-22 20:33N 23°06' E 113°27'66172086.9
2015-Mar-22 20:32N 31°20' E 121°41'5729556.1
2015-Mar-22 20:32N 31°58' E 120°50'662677.2
2015-Mar-22 19:33N 23°06' E 113°27'66199214.8
2015-Mar-22 19:33N 31°24' E 121°37'526724.9
2015-Mar-22 19:32N 31°58' E 120°50'571246.3
2015-Mar-22 19:30N 31°20' E 121°41'661699.0
2015-Mar-22 18:33N 23°06' E 113°27'66138997.8
2015-Mar-22 18:32N 31°20' E 121°41'5155.6
2015-Mar-22 18:30N 31°24' E 121°37'661696.4
2015-Mar-22 17:33N 23°06' E 113°27'66128687.3
2015-Mar-22 17:32N 31°24' E 121°37'538.2
2015-Mar-22 17:23N 31°20' E 121°41'5 6.3
2015-Mar-22 16:33N 31°24' E 121°37'66127370.0
2015-Mar-22 16:32N 23°06' E 113°27'66139647.8
2015-Mar-22 16:31N 31°20' E 121°41'4213352.2
2015-Mar-22 16:23N 24°45' E 118°54'4192478.0
2015-Mar-22 16:13N 31°20' E 121°33'414623.9
2015-Mar-22 15:33N 24°49' E 118°58'415213266.3
2015-Mar-22 15:33N 31°22' E 121°30'65653689.8
2015-Mar-22 15:33N 23°06' E 113°27'66137796.1
2015-Mar-22 15:32N 31°24' E 121°37'53761.9
2015-Mar-22 15:31N 31°20' E 121°41'57163.2
2015-Mar-22 15:10N 31°58' E 120°50'6621070.7
2015-Mar-22 14:33N 23°06' E 113°27'66191582.3
2015-Mar-22 14:33N 31°24' E 121°37'5215.6
2015-Mar-22 14:31N 31°25' E 121°31'1059.8
2015-Mar-22 14:22N 31°20' E 121°41'661820.5
2015-Mar-22 13:33N 23°06' E 113°27'65998793.9
2015-Mar-22 13:33N 31°29' E 121°25'111485.8
2015-Mar-22 13:33N 31°24' E 121°37'51699.7
2015-Mar-22 13:32N 31°20' E 121°41'57139.9
2015-Mar-22 13:08N 31°58' E 120°50'5391.6
2015-Mar-22 12:33N 31°22' E 121°36'1730868.0
2015-Mar-22 12:33N 31°33' E 121°20'658394996.0
2015-Mar-22 12:33N 23°06' E 113°27'66164355.1
2015-Mar-22 12:33N 31°24' E 121°37'0 0.0
2015-Mar-22 11:33N 31°24' E 121°37'85979.4
2015-Mar-22 11:33N 31°27' E 121°28'65940203.6
2015-Mar-22 11:32N 23°06' E 113°27'65934907.3
2015-Mar-22 11:30N 31°38' E 121°14'2424.9
2015-Mar-22 10:33N 31°22' E 121°35'152214.1
2015-Mar-22 10:33N 31°31' E 121°21'6582369670.3
2015-Mar-22 10:33N 23°06' E 113°27'0 0.0
2015-Mar-22 09:34N 23°06' E 113°27'66016963.9
2015-Mar-22 09:31N 31°22' E 121°35'222112.4
2015-Mar-22 09:31N 31°37' E 121°16'2323.9
2015-Mar-22 08:33N 31°22' E 121°36'66074243.3
2015-Mar-22 08:33N 23°06' E 113°27'66091425.2
2015-Mar-22 08:32N 31°40' E 121°13'0 0.0
2015-Mar-22 07:33N 31°40' E 121°13'66162646.1
2015-Mar-22 07:33N 23°05' E 113°26'66221081.9
2015-Mar-22 07:31N 31°20' E 121°41'57202.7
2015-Mar-22 07:14N 31°58' E 120°50'2638.3
2015-Mar-22 06:33N 31°40' E 121°13'66152901.9
2015-Mar-22 06:33N 23°05' E 113°26'662794102.9
2015-Mar-22 06:33N 31°20' E 121°41'661668.6
2015-Mar-22 05:33N 23°06' E 113°27'66067916.3
2015-Mar-22 05:33N 31°40' E 121°13'3237997.3
2015-Mar-22 05:33N 31°20' E 121°41'57410.3
2015-Mar-22 05:24N 31°58' E 120°50'5564.8
2015-Mar-22 04:33N 31°21' E 121°38'317019.8
2015-Mar-22 04:33N 31°41' E 121°10'659474815.7
2015-Mar-22 04:33N 23°06' E 113°27'6627007.3
2015-Mar-22 04:27N 31°58' E 120°50'662734.7
2015-Mar-22 03:33N 23°06' E 113°27'660139660.4
2015-Mar-22 03:33N 31°24' E 121°33'49480.8
2015-Mar-22 03:27N 31°58' E 120°51'162108.2
2015-Mar-22 03:27N 31°46' E 121°03'2528.1
2015-Mar-22 02:33N 31°29' E 121°24'659592681.9
2015-Mar-22 02:33N 23°06' E 113°27'660660.3
2015-Mar-22 01:33N 31°37' E 121°16'285339.9
2015-Mar-22 01:33N 31°56' E 120°52'31019.2
2015-Mar-22 01:33N 31°58' E 120°50'0137.5
2015-Mar-22 01:33N 31°58' E 120°51'5 4.7
2015-Mar-22 00:32N 32°00' E 120°46'32290.1
2015-Mar-22 00:26N 31°38' E 121°14'28928.4
2015-Mar-22 00:24N 31°58' E 120°50'2832.5
2015-Mar-21 23:32N 31°38' E 121°14'28370.0
2015-Mar-21 23:28N 31°58' E 120°50'12148.7
2015-Mar-21 23:23N 32°00' E 120°37'3845.1
2015-Mar-21 22:33N 31°38' E 121°14'28220.4
2015-Mar-21 22:25N 31°58' E 120°50'1860.4
2015-Mar-21 22:07N 32°04' E 120°30'1833.0
2015-Mar-21 21:33N 31°58' E 120°50'281315.5
2015-Mar-21 21:32N 31°38' E 121°14'2860.7
2015-Mar-21 21:04N 31°58' E 120°50'2851.9
2015-Mar-21 20:32N 31°38' E 121°14'0 0.0
2015-Mar-21 19:32N 31°38' E 121°14'2828.4
2015-Mar-21 18:33N 31°58' E 120°50'28391.0
2015-Mar-21 18:29N 31°38' E 121°14'28391.2
2015-Mar-21 18:25N 31°58' E 120°50'0 0.1
2015-Mar-21 17:33N 31°58' E 120°50'28480.0
2015-Mar-21 17:29N 31°38' E 121°14'2890.5
2015-Mar-21 17:11N 31°58' E 120°51'2843.1
2015-Mar-21 16:32N 31°38' E 121°14'0 0.0
2015-Mar-21 15:33N 31°38' E 121°14'2861.6
2015-Mar-21 15:05N 31°59' E 120°51'2140.3
2015-Mar-21 14:33N 31°43' E 121°08'628.1
2015-Mar-21 14:20N 31°39' E 121°13'3846.9
2015-Mar-21 13:32N 31°60' E 120°37'2110867.2
2015-Mar-21 13:31N 31°47' E 120°57'1234.8
2015-Mar-21 13:11N 31°58' E 120°51'3 5.6
2015-Mar-21 12:33N 31°55' E 120°53'9 8.9
2015-Mar-21 11:33N 32°00' E 120°45'939.8
2015-Mar-21 11:19N 31°54' E 120°53'1722.0
2015-Mar-21 10:33N 32°02' E 120°35'12361.8
2015-Mar-21 10:31N 31°60' E 120°49'1717.6
2015-Mar-21 09:33N 32°04' E 120°30'19108.2
2015-Mar-21 09:23N 31°58' E 120°51'2428.7
2015-Mar-21 08:33N 32°01' E 120°23'7 6.7
2015-Mar-21 07:33N 31°57' E 120°17'291151.3
2015-Mar-21 07:32N 31°58' E 120°50'3838.3
2015-Mar-21 06:33N 31°57' E 120°06'1110.7
2015-Mar-21 05:33N 32°03' E 119°56'69822.1
2015-Mar-21 05:28N 31°40' E 121°13'7 7.1
2015-Mar-21 04:31N 31°35' E 121°18'6 6.1
2015-Mar-21 03:30N 31°31' E 121°24'5 5.3
2015-Mar-21 02:33N 31°28' E 121°28'441201.7
2015-Mar-21 02:30N 31°58' E 120°51'830.4
2015-Mar-21 02:15N 32°04' E 120°45'5577.0
2015-Mar-21 01:33N 31°25' E 121°31'4747.7
2015-Mar-21 00:33N 31°58' E 120°51'4843631.9
2015-Mar-21 00:33N 31°23' E 121°30'6 6.1
2015-Mar-20 23:31N 31°17' E 121°34'608530174.1
2015-Mar-20 23:19N 33°45' W 118°11'6098708126.1
2015-Mar-20 23:18N 31°58' E 120°51'7499.3
2015-Mar-20 22:33N 31°58' E 122°18'7474.5
2015-Mar-20 21:33N 31°58' E 120°51'0 0.1
2015-Mar-20 20:24N 31°58' E 120°50'0 0.0
2015-Mar-20 19:30N 31°58' E 120°50'0 0.0
2015-Mar-20 17:27N 31°58' E 120°50'0 0.0
2015-Mar-20 15:03N 31°58' E 120°51'0 0.0
2015-Mar-20 13:24N 31°58' E 120°51'0 0.0
2015-Mar-20 10:09N 31°58' E 120°51'666699.5
2015-Mar-20 09:12N 22°58' E 113°32'6 9.2
2015-Mar-20 08:33N 23°03' E 113°30'61551464.6
2015-Mar-20 08:33N 29°49' E 122°06'144587.4
2015-Mar-20 08:18N 31°58' E 120°51'662895.4
2015-Mar-20 07:33N 23°06' E 113°27'619742393.7
2015-Mar-20 07:33N 29°56' E 122°05'  

Dump ship's entire track history